This is the latest recevied weather packets stored in our database for station/object K7KAR-2. If no packets are shown the sender has not sent any weather packets the latest 1 day(s).
| Time | Temp. | Humidity | Pressure | Rain* | Wind** | Luminosity | Snow |
|---|---|---|---|---|---|---|---|
| 1778068394 | -6.11° C | 53% | 1018.5 hPa | 0 mm | - | 3 W/m² | - |
| 1778068091 | -5.56° C | 51% | 1018.8 hPa | 0 mm | - | 1 W/m² | - |
| 1778067487 | -6.11° C | 52% | 1018.5 hPa | 0 mm | - | 0 W/m² | - |
| 1778067184 | -5.56° C | 51% | 1018.6 hPa | 0 mm | - | 0 W/m² | - |
| 1778066578 | -5.56° C | 51% | 1018.5 hPa | 0 mm | - | 0 W/m² | - |
| 1778066275 | -5.56° C | 51% | 1018.8 hPa | 0 mm | - | 0 W/m² | - |
| 1778065973 | -5.56° C | 51% | 1018.7 hPa | 0 mm | - | 0 W/m² | - |
| 1778065670 | -5° C | 50% | 1018.4 hPa | 0 mm | - | 0 W/m² | - |
| 1778065064 | -5° C | 50% | 1018.6 hPa | 0 mm | - | 0 W/m² | - |
| 1778064156 | -4.44° C | 48% | 1018.7 hPa | 0 mm | - | 0 W/m² | - |
| 1778063853 | -4.44° C | 47% | 1018.7 hPa | 0 mm | - | 0 W/m² | - |
| 1778063550 | -4.44° C | 47% | 1018.9 hPa | 0 mm | - | 0 W/m² | - |
| 1778063248 | -4.44° C | 46% | 1018.8 hPa | 0 mm | - | 0 W/m² | - |
| 1778062642 | -3.89° C | 45% | 1018.8 hPa | 0 mm | - | 0 W/m² | - |
| 1778062339 | -3.89° C | 45% | 1018.6 hPa | 0 mm | - | 0 W/m² | - |
| 1778062037 | -4.44° C | 47% | 1018.6 hPa | 0 mm | - | 0 W/m² | - |
| 1778061735 | -4.44° C | 46% | 1019 hPa | 0 mm | - | 0 W/m² | - |
| 1778061433 | -3.89° C | 46% | 1018.7 hPa | 0 mm | - | 0 W/m² | - |
| 1778059919 | -3.89° C | 47% | 1018.9 hPa | 0 mm | - | 0 W/m² | - |
| 1778059314 | -3.89° C | 46% | 1018.9 hPa | 0 mm | - | 0 W/m² | - |
| 1778057193 | -3.33° C | 44% | 1019 hPa | 0 mm | - | 0 W/m² | - |
| 1778056587 | -3.89° C | 46% | 1019 hPa | 0 mm | - | 0 W/m² | - |
| 1778056285 | -4.44° C | 49% | 1018.9 hPa | 0 mm | - | 0 W/m² | - |
| 1778055677 | -5.56° C | 50% | 1019.1 hPa | 0 mm | - | 0 W/m² | - |
| 1778055073 | -3.89° C | 45% | 1019 hPa | 0 mm | - | 0 W/m² | - |
* Rain latest hour (hover to see other rain measurements)
** Current wind speed in m/s (hover to see current wind gust speed)